Terminal Aerodrome Forecast
Issued by NWS

Home | Current Version | Previous Version | Text Only | Print | Product List | Glossary On
Versions: 1 2 3 4 5 6 7 8 9 10 11 12 13 14 15 16 17 18
348
FTUS46 KSTO 052320
TAFSAC
TAF
KSAC 052320Z 0600/0624 VRB04KT P6SM SCT250
     FM060800 00000KT 4SM BR SCT250
      TEMPO 0612/0616 1 1/2SM BR VV002
     FM061900 32007KT P6SM SCT250=

USA.gov is the U.S. government's official web portal to all federal, state and local government web resources and services.